Time;durP1;ratioP1;P1;durP2;ratioP2;P2;SDS_P1;SDS_P2;PMS_P1;PMS_P2;Temp;Humidity;BMP_temperature;BMP_pressure;BME280_temperature;BME280_humidity;BME280_pressure;Samples;Min_cycle;Max_cycle;Signal;HPM_P1;HPM_P2
2023/07/06 00:02:19;;;;;;;4.60;1.77;;;;;;;23.01;52.04;100418.94;5087687;28;20452;-64
2023/07/06 00:04:46;;;;;;;6.63;2.30;;;;;;;23.02;52.30;100414.03;5081300;28;20677;-64
2023/07/06 00:07:20;;;;;;;3.23;2.00;;;;;;;23.01;51.77;100413.19;5087795;28;20226;-64
2023/07/06 00:09:46;;;;;;;3.70;2.20;;;;;;;23.01;52.19;100418.94;5088568;28;20424;-64
2023/07/06 00:12:12;;;;;;;5.00;2.57;;;;;;;23.00;52.04;100417.31;5089127;28;20416;-64
2023/07/06 00:14:38;;;;;;;3.53;2.00;;;;;;;23.01;52.51;100412.34;5072919;28;20793;-64
2023/07/06 00:17:14;;;;;;;6.13;1.77;;;;;;;23.00;52.40;100416.47;5069427;28;20232;-64
2023/07/06 00:19:40;;;;;;;3.37;1.87;;;;;;;23.00;52.44;100414.44;5035538;28;20277;-64
2023/07/06 00:22:06;;;;;;;3.80;2.17;;;;;;;23.00;52.33;100413.59;5069176;28;20449;-64
2023/07/06 00:24:32;;;;;;;3.73;1.83;;;;;;;23.00;51.66;100420.19;5076298;28;20450;-64
2023/07/06 00:26:57;;;;;;;5.80;2.00;;;;;;;23.00;52.66;100425.94;5088798;28;20432;-64
2023/07/06 00:29:22;;;;;;;2.93;1.87;;;;;;;23.00;52.43;100420.19;5068205;28;20737;-64
2023/07/06 00:31:52;;;;;;;4.83;2.50;;;;;;;22.99;52.45;100415.66;5061732;28;20182;-64
2023/07/06 00:34:18;;;;;;;4.53;1.93;;;;;;;22.99;52.76;100417.72;5087560;28;20705;-64
2023/07/06 00:36:44;;;;;;;3.07;1.87;;;;;;;23.00;52.81;100422.22;5088232;28;20465;-64
2023/07/06 00:39:12;;;;;;;3.70;2.20;;;;;;;22.99;52.97;100426.34;5065238;28;20783;-64
2023/07/06 00:41:38;;;;;;;4.77;1.83;;;;;;;22.98;52.61;100422.63;5071123;28;20546;-64
2023/07/06 00:44:04;;;;;;;5.43;2.00;;;;;;;22.98;52.61;100414.00;5089040;28;20912;-64
2023/07/06 00:46:36;;;;;;;3.53;1.87;;;;;;;22.98;52.96;100418.94;5052878;28;20538;-64
2023/07/06 00:49:02;;;;;;;2.67;1.67;;;;;;;22.98;52.77;100422.63;5068485;28;20566;-64
2023/07/06 00:51:32;;;;;;;3.03;1.80;;;;;;;22.97;52.53;100418.13;5060610;28;20501;-64
2023/07/06 00:54:09;;;;;;;4.37;2.03;;;;;;;22.98;52.86;100430.47;5070313;28;20747;-63
2023/07/06 00:56:37;;;;;;;4.57;2.53;;;;;;;22.97;52.98;100426.75;5060406;28;20451;-64
2023/07/06 00:59:05;;;;;;;4.17;2.33;;;;;;;22.97;53.26;100425.94;5067808;28;20432;-64
2023/07/06 01:01:32;;;;;;;3.30;1.83;;;;;;;22.96;52.71;100428.00;5050913;28;20469;-64
2023/07/06 01:03:58;;;;;;;4.80;2.20;;;;;;;22.96;53.02;100433.75;5050966;28;20465;-64
2023/07/06 01:06:31;;;;;;;4.37;2.57;;;;;;;22.96;53.01;100428.00;5070849;28;20480;-64
2023/07/06 01:08:57;;;;;;;2.97;1.80;;;;;;;22.97;52.53;100440.34;5068766;28;20224;-64
2023/07/06 01:11:23;;;;;;;3.67;1.90;;;;;;;22.95;52.87;100432.13;5070893;28;20447;-64
2023/07/06 01:13:49;;;;;;;6.47;2.20;;;;;;;22.95;52.95;100426.34;5067838;28;20515;-64
2023/07/06 01:16:27;;;;;;;4.27;2.07;;;;;;;22.94;52.65;100432.50;5070151;28;20176;-64
2023/07/06 01:19:08;;;;;;;3.10;1.90;;;;;;;22.94;52.90;100426.75;5051393;28;20795;-64
2023/07/06 01:21:51;;;;;;;4.17;2.20;;;;;;;22.93;53.28;100425.91;5066863;28;20491;-64
2023/07/06 01:24:25;;;;;;;4.43;2.00;;;;;;;22.93;52.83;100428.78;5065449;28;20445;-64
2023/07/06 01:27:02;;;;;;;4.03;2.20;;;;;;;22.93;53.06;100425.91;5083646;28;20443;-64
2023/07/06 01:29:35;;;;;;;3.80;2.27;;;;;;;22.94;52.83;100426.75;5070346;28;20834;-64
2023/07/06 01:32:02;;;;;;;3.77;2.20;;;;;;;22.93;52.95;100423.03;5069593;28;20409;-64
2023/07/06 01:34:53;;;;;;;3.63;1.80;;;;;;;22.93;52.66;100428.00;5063586;28;20436;-64
2023/07/06 01:37:30;;;;;;;2.93;1.80;;;;;;;22.93;53.26;100419.34;5050228;28;21139;-64
2023/07/06 01:39:57;;;;;;;3.67;1.80;;;;;;;22.92;53.37;100432.09;5053201;28;20479;-64
2023/07/06 01:42:27;;;;;;;3.80;2.00;;;;;;;22.92;53.34;100420.59;5087971;28;20460;-64
2023/07/06 01:44:56;;;;;;;6.13;2.07;;;;;;;22.92;53.23;100417.72;5069674;28;20413;-64
2023/07/06 01:47:22;;;;;;;3.50;2.10;;;;;;;22.91;52.95;100422.63;5069452;28;20424;-64
2023/07/06 01:49:48;;;;;;;3.60;2.00;;;;;;;22.92;52.90;100426.34;5079813;28;20445;-64
2023/07/06 01:52:17;;;;;;;3.20;1.90;;;;;;;22.92;53.23;100411.94;5071078;28;20262;-64
2023/07/06 01:54:58;;;;;;;3.63;2.10;;;;;;;22.91;53.26;100418.91;5087603;28;20590;-64
2023/07/06 01:57:30;;;;;;;3.03;1.60;;;;;;;22.91;52.97;100425.50;5074386;28;20443;-64
2023/07/06 01:59:56;;;;;;;6.47;2.47;;;;;;;22.91;53.19;100416.88;5060199;28;20440;-64
2023/07/06 02:02:21;;;;;;;3.23;1.90;;;;;;;22.90;53.19;100418.13;5036885;28;20510;-64
2023/07/06 02:04:49;;;;;;;3.20;1.80;;;;;;;22.92;53.00;100420.59;5074589;28;20226;-64
2023/07/06 02:07:16;;;;;;;3.03;1.87;;;;;;;22.90;52.80;100418.13;5091794;28;20745;-64
2023/07/06 02:09:46;;;;;;;3.47;2.00;;;;;;;22.91;52.92;100413.16;5074903;28;20448;-64
2023/07/06 02:12:13;;;;;;;6.30;1.90;;;;;;;22.91;53.02;100418.91;5071666;28;20398;-64
2023/07/06 02:14:42;;;;;;;3.60;1.70;;;;;;;22.90;53.24;100412.34;5071553;28;20409;-64
2023/07/06 02:17:09;;;;;;;2.77;1.90;;;;;;;22.90;52.85;100415.22;5072380;28;20465;-64
2023/07/06 02:19:35;;;;;;;3.17;2.07;;;;;;;22.90;53.34;100411.53;5036072;28;20431;-64
2023/07/06 02:22:03;;;;;;;4.20;2.07;;;;;;;22.90;52.97;100411.53;5069243;28;20442;-64
2023/07/06 02:24:29;;;;;;;3.63;2.17;;;;;;;22.89;52.81;100410.72;5054294;28;20696;-64
2023/07/06 02:26:55;;;;;;;3.10;1.90;;;;;;;22.89;52.92;100410.72;5083725;28;20519;-64
2023/07/06 02:29:22;;;;;;;3.43;1.57;;;;;;;22.89;52.88;100418.50;5063351;28;20437;-64
2023/07/06 02:31:48;;;;;;;3.93;2.07;;;;;;;22.89;52.97;100409.88;5080332;28;20197;-64
2023/07/06 02:34:14;;;;;;;4.67;1.90;;;;;;;22.89;53.31;100409.88;5089517;28;20511;-64
2023/07/06 02:36:40;;;;;;;3.70;2.07;;;;;;;22.89;53.24;100409.88;5071029;28;20447;-64
2023/07/06 02:39:05;;;;;;;3.47;1.80;;;;;;;22.87;53.13;100407.41;5090811;28;20171;-64
2023/07/06 02:41:31;;;;;;;4.47;1.80;;;;;;;22.88;53.10;100397.53;5089244;28;20445;-64
2023/07/06 02:43:57;;;;;;;4.97;2.30;;;;;;;22.87;53.30;100403.72;5087466;28;20175;-64
2023/07/06 02:46:22;;;;;;;2.60;1.73;;;;;;;22.87;53.50;100401.63;5069717;28;20198;-64
2023/07/06 02:48:50;;;;;;;3.33;1.70;;;;;;;22.87;52.93;100397.97;5069795;28;20249;-64
2023/07/06 02:51:16;;;;;;;2.90;1.60;;;;;;;22.86;52.92;100400.00;5073255;28;20178;-64
2023/07/06 02:53:41;;;;;;;3.50;2.30;;;;;;;22.86;52.94;100399.16;5084378;28;20443;-64
2023/07/06 02:56:07;;;;;;;2.73;1.70;;;;;;;22.87;52.97;100395.06;5072590;28;20421;-64
2023/07/06 02:58:34;;;;;;;5.37;1.77;;;;;;;22.86;53.29;100402.88;5088284;28;20312;-64
2023/07/06 03:00:59;;;;;;;2.93;1.70;;;;;;;22.85;53.02;100401.25;5089598;28;20277;-64
2023/07/06 03:03:26;;;;;;;4.30;2.30;;;;;;;22.84;53.12;100396.72;5090272;28;20464;-64
2023/07/06 03:05:51;;;;;;;4.93;2.03;;;;;;;22.85;52.74;100391.75;5059180;28;20686;-64
2023/07/06 03:08:17;;;;;;;3.33;1.87;;;;;;;22.84;53.08;100401.63;5051336;28;20448;-64
2023/07/06 03:10:46;;;;;;;3.77;2.00;;;;;;;22.83;53.26;100397.94;5071393;28;20186;-64
2023/07/06 03:13:13;;;;;;;4.63;1.90;;;;;;;22.83;53.23;100403.69;5051096;28;20520;-64
2023/07/06 03:15:40;;;;;;;3.17;1.70;;;;;;;22.83;52.83;100403.69;5050814;28;20401;-64
2023/07/06 03:18:06;;;;;;;3.87;2.00;;;;;;;22.83;52.92;100402.88;5081919;28;20439;-64
2023/07/06 03:20:32;;;;;;;3.10;2.00;;;;;;;22.83;53.13;100400.81;5088884;28;20887;-64
2023/07/06 03:22:57;;;;;;;3.57;1.70;;;;;;;22.82;53.19;100404.91;5086073;28;20534;-64
2023/07/06 03:25:25;;;;;;;3.70;2.00;;;;;;;22.81;53.39;100396.69;5089569;28;20155;-64
2023/07/06 03:27:51;;;;;;;5.73;2.13;;;;;;;22.82;52.88;100404.91;5089475;28;20194;-64
2023/07/06 03:30:19;;;;;;;3.20;2.13;;;;;;;22.81;52.88;100397.53;5073294;28;20835;-64
2023/07/06 03:32:45;;;;;;;2.87;1.67;;;;;;;22.81;53.19;100400.41;5068556;28;20166;-64
2023/07/06 03:35:11;;;;;;;3.17;1.90;;;;;;;22.82;52.95;100404.13;5053110;28;20437;-64
2023/07/06 03:37:37;;;;;;;3.93;2.07;;;;;;;22.80;52.74;100395.88;5049700;28;20163;-64
2023/07/06 03:40:05;;;;;;;3.40;2.10;;;;;;;22.80;53.34;100401.63;5067803;28;20190;-64
2023/07/06 03:42:31;;;;;;;4.27;2.20;;;;;;;22.79;52.71;100402.88;5066938;28;20445;-64
2023/07/06 03:44:57;;;;;;;3.77;1.57;;;;;;;22.80;52.71;100418.91;5074884;28;21006;-64
2023/07/06 03:47:27;;;;;;;3.40;2.00;;;;;;;22.81;53.25;100411.09;5087995;28;20194;-64
2023/07/06 03:49:53;;;;;;;3.43;1.90;;;;;;;22.79;52.81;100414.38;5067756;28;20235;-64
2023/07/06 03:52:18;;;;;;;6.40;2.60;;;;;;;22.79;52.90;100417.28;5075354;28;20416;-64
2023/07/06 03:54:47;;;;;;;2.87;1.63;;;;;;;22.80;53.26;100426.72;5080101;28;20973;-64
2023/07/06 03:57:12;;;;;;;3.90;1.93;;;;;;;22.79;53.09;100422.19;5088296;28;20182;-64
2023/07/06 03:59:38;;;;;;;3.90;2.07;;;;;;;22.79;53.28;100425.91;5079962;28;20936;-64
2023/07/06 04:02:07;;;;;;;3.53;1.80;;;;;;;22.79;53.16;100416.44;5069304;28;20198;-64
2023/07/06 04:04:33;;;;;;;2.50;1.57;;;;;;;22.78;53.03;100420.56;5071390;28;20701;-64
2023/07/06 04:06:58;;;;;;;2.63;1.67;;;;;;;22.78;52.93;100421.34;5069559;28;20456;-64
2023/07/06 04:09:28;;;;;;;4.10;2.10;;;;;;;22.77;53.13;100422.59;5069029;28;20413;-64
2023/07/06 04:11:53;;;;;;;4.03;2.30;;;;;;;22.77;52.82;100413.94;5071094;28;20179;-64
2023/07/06 04:14:24;;;;;;;3.73;2.03;;;;;;;22.76;53.06;100425.88;5068134;28;20425;-64
2023/07/06 04:16:54;;;;;;;3.83;2.17;;;;;;;22.76;53.05;100426.72;5053673;28;20619;-64
2023/07/06 04:19:20;;;;;;;3.20;1.80;;;;;;;22.77;53.27;100430.41;5067600;28;20410;-64
2023/07/06 04:21:45;;;;;;;5.20;2.20;;;;;;;22.76;53.06;100423.81;5049351;28;20475;-63
2023/07/06 04:24:11;;;;;;;4.33;1.93;;;;;;;22.77;53.01;100427.53;5080920;28;20182;-64
2023/07/06 04:26:36;;;;;;;4.03;2.00;;;;;;;22.76;53.30;100438.22;5087582;28;20518;-64
2023/07/06 04:29:02;;;;;;;3.60;1.93;;;;;;;22.75;52.61;100425.06;5049687;28;20202;-64
2023/07/06 04:31:27;;;;;;;3.90;2.27;;;;;;;22.75;52.66;100430.81;5087032;28;20185;-64
2023/07/06 04:33:54;;;;;;;3.50;2.37;;;;;;;22.76;53.05;100423.81;5087178;28;20166;-64
2023/07/06 04:36:19;;;;;;;3.70;2.30;;;;;;;22.76;53.08;100434.50;5080365;28;20642;-64
2023/07/06 04:38:45;;;;;;;3.00;2.10;;;;;;;22.76;53.25;100434.50;5087262;28;20461;-64
2023/07/06 04:41:12;;;;;;;3.33;1.90;;;;;;;22.76;52.98;100432.47;5084673;28;20555;-64
2023/07/06 04:43:37;;;;;;;3.40;1.80;;;;;;;22.77;52.93;100427.53;5070139;28;20174;-64
2023/07/06 04:46:03;;;;;;;3.30;1.77;;;;;;;22.79;52.92;100428.78;5088299;28;20416;-64
2023/07/06 04:48:29;;;;;;;5.33;2.27;;;;;;;22.82;53.01;100432.91;5077430;28;20220;-63
2023/07/06 04:50:54;;;;;;;4.30;2.00;;;;;;;22.81;52.97;100426.31;5088323;28;20249;-64
2023/07/06 04:53:20;;;;;;;2.90;1.93;;;;;;;22.81;52.97;100429.19;5066654;28;20186;-64
2023/07/06 04:55:46;;;;;;;4.00;2.00;;;;;;;22.84;53.04;100441.94;5088866;28;20182;-64
2023/07/06 04:58:11;;;;;;;5.50;2.00;;;;;;;22.84;52.50;100437.03;5087783;28;20389;-64
2023/07/06 05:00:39;;;;;;;4.67;2.13;;;;;;;22.85;52.42;100434.94;5073953;28;20950;-64
2023/07/06 05:03:08;;;;;;;3.33;1.83;;;;;;;22.84;52.92;100439.06;5068623;28;20163;-64
2023/07/06 05:05:36;;;;;;;3.57;2.13;;;;;;;22.84;53.06;100437.03;5051028;28;20424;-64
2023/07/06 05:08:02;;;;;;;3.20;1.80;;;;;;;22.84;53.09;100436.19;5067943;28;20441;-64
2023/07/06 05:10:28;;;;;;;3.83;2.00;;;;;;;22.84;53.53;100442.78;5069950;28;20442;-64
2023/07/06 05:12:55;;;;;;;5.43;2.33;;;;;;;22.85;53.41;100438.66;5067461;28;20420;-64
2023/07/06 05:15:21;;;;;;;3.70;2.10;;;;;;;22.87;53.42;100444.03;5050125;28;20167;-64
2023/07/06 05:17:46;;;;;;;5.20;2.07;;;;;;;22.88;53.32;100446.47;5069571;28;20433;-64
2023/07/06 05:20:15;;;;;;;3.50;2.17;;;;;;;22.87;53.73;100450.59;5067869;28;20187;-65
2023/07/06 05:22:48;;;;;;;3.60;2.37;;;;;;;22.89;53.30;100451.03;5067640;28;20199;-64
2023/07/06 05:25:17;;;;;;;2.73;1.60;;;;;;;22.90;53.13;100457.59;5082781;28;20439;-64
2023/07/06 05:27:42;;;;;;;3.80;2.53;;;;;;;22.90;53.00;100458.41;5091688;28;20420;-64
2023/07/06 05:30:08;;;;;;;4.33;2.50;;;;;;;22.92;52.98;100460.91;5072153;28;20529;-64
2023/07/06 05:32:34;;;;;;;3.00;1.87;;;;;;;22.92;52.71;100460.91;5091554;28;20281;-64
2023/07/06 05:34:59;;;;;;;3.30;1.70;;;;;;;22.92;53.08;100443.63;5072990;28;20851;-64
2023/07/06 05:37:25;;;;;;;4.50;2.10;;;;;;;22.90;53.64;100451.81;5091328;28;20261;-64
2023/07/06 05:39:50;;;;;;;3.57;2.10;;;;;;;22.89;53.62;100458.81;5081823;28;20626;-64
2023/07/06 05:42:17;;;;;;;4.13;2.00;;;;;;;22.86;53.71;100451.00;5071836;28;20658;-64
2023/07/06 05:44:43;;;;;;;3.30;2.27;;;;;;;22.86;53.94;100457.59;5072016;28;20278;-64
2023/07/06 05:47:09;;;;;;;3.80;2.00;;;;;;;22.85;53.66;100461.69;5071987;28;20806;-64
2023/07/06 05:49:34;;;;;;;3.60;2.20;;;;;;;22.86;53.66;100469.09;5056360;28;20506;-64
2023/07/06 05:51:59;;;;;;;5.60;2.20;;;;;;;22.86;53.76;100463.34;5053711;28;20175;-64
2023/07/06 05:54:25;;;;;;;4.30;2.60;;;;;;;22.86;53.27;100469.09;5074895;28;20178;-64
2023/07/06 05:56:51;;;;;;;6.07;2.60;;;;;;;22.87;53.41;100464.97;5073987;28;20181;-64
2023/07/06 05:59:16;;;;;;;4.80;2.70;;;;;;;22.85;53.63;100469.50;5089501;28;20183;-64
2023/07/06 06:01:42;;;;;;;4.53;2.40;;;;;;;22.85;53.61;100472.38;5091443;28;20190;-64
2023/07/06 06:04:07;;;;;;;4.13;2.13;;;;;;;22.85;53.84;100478.97;5076503;28;20233;-64
2023/07/06 06:06:54;;;;;;;4.60;2.80;;;;;;;22.86;53.60;100480.63;5052375;28;20534;-64
2023/07/06 06:09:20;;;;;;;3.80;2.20;;;;;;;22.90;54.18;100474.88;5068886;28;20179;-64
2023/07/06 06:11:46;;;;;;;4.23;1.93;;;;;;;22.91;53.82;100476.50;5051913;28;21148;-64
2023/07/06 06:14:12;;;;;;;3.53;1.97;;;;;;;22.94;53.66;100487.22;5085294;28;20510;-64
2023/07/06 06:16:39;;;;;;;3.13;1.80;;;;;;;22.94;53.75;100485.19;5077331;28;20439;-64
2023/07/06 06:19:04;;;;;;;4.77;2.40;;;;;;;22.95;53.54;100485.97;5074913;28;20183;-64
2023/07/06 06:21:30;;;;;;;3.67;2.30;;;;;;;22.93;53.24;100486.38;5072566;28;20487;-64
2023/07/06 06:23:57;;;;;;;4.10;2.40;;;;;;;22.91;53.52;100485.97;5090936;28;20269;-64
2023/07/06 06:26:23;;;;;;;3.40;2.20;;;;;;;22.89;53.62;100485.56;5090083;28;20182;-64
2023/07/06 06:28:49;;;;;;;5.37;2.47;;;;;;;22.88;53.59;100492.53;5087504;28;20481;-64
2023/07/06 06:31:14;;;;;;;4.17;2.00;;;;;;;22.87;53.45;100488.03;5089387;28;20428;-64
2023/07/06 06:33:40;;;;;;;4.63;2.20;;;;;;;22.86;54.08;100491.28;5046936;28;20537;-64
2023/07/06 06:36:07;;;;;;;4.00;1.97;;;;;;;22.85;53.66;100496.25;5084679;28;20189;-64
2023/07/06 06:38:34;;;;;;;4.80;2.00;;;;;;;22.84;53.67;100497.47;5091438;28;20264;-64
2023/07/06 06:41:03;;;;;;;7.37;2.30;;;;;;;22.84;53.79;100497.47;5091194;28;20525;-64
2023/07/06 06:43:28;;;;;;;6.00;2.40;;;;;;;22.85;53.90;100504.03;5073159;28;20413;-64
2023/07/06 06:45:54;;;;;;;4.40;2.23;;;;;;;22.84;54.10;100505.28;5091336;28;20442;-64
2023/07/06 06:48:20;;;;;;;4.20;2.10;;;;;;;22.84;54.21;100496.66;5086027;28;20193;-64
2023/07/06 06:50:45;;;;;;;4.07;2.27;;;;;;;22.84;54.28;100497.47;5070871;28;20642;-64
2023/07/06 06:53:11;;;;;;;4.17;2.00;;;;;;;22.83;53.71;100498.69;5063512;28;20444;-64
2023/07/06 06:55:37;;;;;;;5.60;2.50;;;;;;;22.81;53.62;100501.16;5083530;28;20193;-64
2023/07/06 06:58:03;;;;;;;5.90;2.50;;;;;;;22.82;53.63;100502.00;5085875;28;20179;-64
2023/07/06 07:00:29;;;;;;;5.30;2.47;;;;;;;22.84;53.41;100497.47;5075947;28;20186;-64
2023/07/06 07:02:54;;;;;;;3.70;2.10;;;;;;;22.83;53.73;100503.63;5071972;28;20496;-64
2023/07/06 07:05:20;;;;;;;3.60;1.97;;;;;;;22.83;53.53;100501.56;5069806;28;20175;-64
2023/07/06 07:07:45;;;;;;;2.93;1.90;;;;;;;22.85;53.49;100501.16;5051252;28;20297;-64
2023/07/06 07:10:11;;;;;;;4.97;2.20;;;;;;;22.84;53.94;100497.47;5054010;28;20183;-64
2023/07/06 07:12:38;;;;;;;3.50;1.93;;;;;;;22.83;53.44;100492.13;5069808;28;20187;-64
2023/07/06 07:15:04;;;;;;;4.30;2.17;;;;;;;22.83;53.37;100495.81;5071873;28;20539;-64
2023/07/06 07:17:30;;;;;;;5.20;2.70;;;;;;;22.82;53.89;100505.69;5071212;28;20424;-64
2023/07/06 07:19:55;;;;;;;5.00;2.30;;;;;;;22.82;53.42;100496.25;5058676;28;20429;-64
2023/07/06 07:22:21;;;;;;;2.93;1.80;;;;;;;22.83;53.52;100495.00;5088406;28;20224;-64
2023/07/06 07:24:47;;;;;;;5.70;2.50;;;;;;;22.82;53.67;100502.81;5067720;28;20194;-64
2023/07/06 07:27:12;;;;;;;4.27;2.63;;;;;;;22.82;53.51;100497.03;5086538;28;20198;-64
2023/07/06 07:29:37;;;;;;;4.43;2.07;;;;;;;22.81;53.48;100497.44;5089577;28;20170;-64
2023/07/06 07:32:03;;;;;;;4.23;1.93;;;;;;;22.80;53.83;100495.81;5079008;28;20912;-64
2023/07/06 07:34:29;;;;;;;7.13;2.60;;;;;;;22.81;53.28;100494.56;5076454;28;20230;-64
2023/07/06 07:36:54;;;;;;;7.70;2.53;;;;;;;22.81;53.58;100491.69;5056377;28;20183;-64
2023/07/06 07:39:19;;;;;;;5.30;2.30;;;;;;;22.81;53.19;100492.53;5073751;28;20163;-64
2023/07/06 07:41:45;;;;;;;4.40;2.80;;;;;;;22.81;53.82;100489.66;5071650;28;20306;-64
2023/07/06 07:44:11;;;;;;;11.47;2.60;;;;;;;22.80;53.65;100479.38;5090193;28;20186;-64
2023/07/06 07:46:36;;;;;;;5.20;2.73;;;;;;;22.81;53.52;100485.94;5081447;28;20181;-64
2023/07/06 07:49:02;;;;;;;7.80;2.87;;;;;;;22.81;53.49;100488.81;5050640;28;20179;-64
2023/07/06 07:51:28;;;;;;;6.93;2.70;;;;;;;22.80;53.18;100487.16;5080206;28;20252;-64
2023/07/06 07:53:54;;;;;;;6.30;3.57;;;;;;;22.80;53.16;100487.16;5070136;28;20559;-64
2023/07/06 07:56:20;;;;;;;4.80;2.50;;;;;;;22.80;53.38;100490.88;5063639;28;20431;-64
2023/07/06 07:58:49;;;;;;;7.80;2.80;;;;;;;22.79;53.60;100495.00;5067629;28;20421;-64
2023/07/06 08:01:17;;;;;;;5.90;2.63;;;;;;;22.79;53.45;100491.28;5070319;28;21001;-64
2023/07/06 08:03:42;;;;;;;13.07;2.70;;;;;;;22.79;53.04;100494.16;5057610;28;20484;-64
2023/07/06 08:06:10;;;;;;;5.40;2.30;;;;;;;22.79;53.13;100494.16;5070526;28;20441;-64
2023/07/06 08:08:36;;;;;;;6.20;2.03;;;;;;;22.78;53.39;100496.19;5049696;28;20197;-64
2023/07/06 08:11:23;;;;;;;6.00;2.07;;;;;;;22.78;53.37;100496.19;5067626;28;20416;-64
2023/07/06 08:13:53;;;;;;;6.43;2.50;;;;;;;22.78;53.21;100489.63;5069514;28;20445;-64
2023/07/06 08:16:19;;;;;;;5.23;2.30;;;;;;;22.78;53.08;100490.44;5085506;28;20465;-64
2023/07/06 08:18:45;;;;;;;5.07;2.37;;;;;;;22.79;53.32;100491.28;5087755;28;21154;-64
2023/07/06 08:21:10;;;;;;;4.43;2.23;;;;;;;22.77;52.92;100494.56;5069084;28;20479;-64
2023/07/06 08:23:37;;;;;;;6.37;2.20;;;;;;;22.79;52.96;100491.28;5081911;28;20186;-64
2023/07/06 08:26:04;;;;;;;5.43;2.60;;;;;;;22.78;53.08;100484.69;5087382;28;20182;-64
2023/07/06 08:28:31;;;;;;;9.10;2.60;;;;;;;22.78;52.79;100496.19;5057255;28;20913;-64
2023/07/06 08:30:58;;;;;;;4.40;2.17;;;;;;;22.77;52.74;100488.00;5068145;28;20536;-64
2023/07/06 08:33:25;;;;;;;5.23;2.53;;;;;;;22.77;52.51;100500.31;5079897;28;20480;-64
2023/07/06 08:35:52;;;;;;;5.67;2.50;;;;;;;22.78;52.82;100506.91;5080411;28;20574;-64
2023/07/06 08:38:17;;;;;;;7.00;2.30;;;;;;;22.77;53.11;100494.56;5078887;28;20527;-64
2023/07/06 08:40:43;;;;;;;4.90;2.37;;;;;;;22.77;52.94;100500.31;5068111;28;20429;-64
2023/07/06 08:43:18;;;;;;;6.83;2.30;;;;;;;22.77;53.03;100490.88;5043644;28;20186;-64
2023/07/06 08:45:46;;;;;;;9.20;2.37;;;;;;;22.76;52.83;100490.03;5069354;28;20246;-64
2023/07/06 08:48:13;;;;;;;9.00;2.53;;;;;;;22.76;53.15;100490.03;5065841;28;20444;-64
2023/07/06 08:50:38;;;;;;;8.73;2.10;;;;;;;22.76;52.38;100492.06;5069993;28;20937;-64
2023/07/06 08:53:05;;;;;;;6.10;2.17;;;;;;;22.76;52.56;100486.31;5087069;28;20412;-64
2023/07/06 08:55:30;;;;;;;7.70;2.80;;;;;;;22.75;52.67;100476.88;5086819;28;20748;-64
2023/07/06 08:57:56;;;;;;;6.43;2.90;;;;;;;22.75;52.47;100488.41;5079135;28;20437;-64
2023/07/06 09:00:25;;;;;;;6.30;2.10;;;;;;;22.75;52.22;100482.63;5085073;28;20190;-64
2023/07/06 09:03:04;;;;;;;3.87;1.90;;;;;;;22.76;52.71;100483.44;5091504;28;20206;-64
2023/07/06 09:05:31;;;;;;;5.03;2.10;;;;;;;22.76;52.11;100487.16;5064664;28;20650;-64
2023/07/06 09:07:57;;;;;;;4.30;2.20;;;;;;;22.75;52.66;100485.50;5054570;28;20445;-64
2023/07/06 09:10:23;;;;;;;3.67;1.80;;;;;;;22.76;51.83;100492.91;5053598;28;20417;-64
2023/07/06 09:12:49;;;;;;;4.17;1.90;;;;;;;22.76;52.18;100486.31;5055787;28;20187;-64
2023/07/06 09:15:16;;;;;;;5.33;1.97;;;;;;;22.76;51.83;100490.03;5072710;28;20420;-64
2023/07/06 09:17:51;;;;;;;6.83;2.13;;;;;;;22.77;52.11;100491.69;5072537;28;20254;-64
2023/07/06 09:20:18;;;;;;;6.73;2.53;;;;;;;22.75;51.98;100494.16;5077160;28;20440;-64
2023/07/06 09:22:44;;;;;;;5.87;2.30;;;;;;;22.76;51.49;100492.06;5073635;28;20464;-64
2023/07/06 09:25:15;;;;;;;3.40;1.90;;;;;;;22.76;51.91;100490.03;5070062;28;20498;-64
2023/07/06 09:27:43;;;;;;;6.80;2.73;;;;;;;22.77;51.46;100488.81;5089249;28;20905;-64
2023/07/06 09:30:37;;;;;;;4.80;2.30;;;;;;;22.76;51.75;100487.16;5054112;28;20468;-64
2023/07/06 09:33:06;;;;;;;10.10;2.20;;;;;;;22.76;51.77;100490.03;5056928;28;20425;-64
2023/07/06 09:35:35;;;;;;;4.63;2.20;;;;;;;22.77;51.48;100483.03;5074245;28;20440;-64
2023/07/06 09:38:01;;;;;;;4.50;2.07;;;;;;;22.76;51.54;100478.53;5065067;28;20424;-64
2023/07/06 09:40:28;;;;;;;7.77;2.30;;;;;;;22.76;51.93;100480.56;5073285;28;20516;-64
2023/07/06 09:42:53;;;;;;;6.47;2.83;;;;;;;22.77;51.66;100483.03;5087867;28;20461;-64
2023/07/06 09:45:25;;;;;;;3.00;2.00;;;;;;;22.77;51.19;100482.25;5071151;28;20418;-64
2023/07/06 09:48:02;;;;;;;5.73;2.30;;;;;;;22.77;50.93;100480.16;5052116;28;20548;-64
2023/07/06 09:50:48;;;;;;;5.23;1.97;;;;;;;22.77;51.56;100476.47;5036862;28;20420;-64
2023/07/06 09:53:27;;;;;;;6.37;2.47;;;;;;;22.77;51.76;100477.28;5075336;28;20455;-64
2023/07/06 09:55:54;;;;;;;8.10;2.00;;;;;;;22.77;51.10;100473.59;5071595;28;20439;-64
2023/07/06 09:58:24;;;;;;;5.50;2.70;;;;;;;22.78;51.17;100481.00;5069249;28;20496;-64
2023/07/06 10:00:54;;;;;;;3.97;1.90;;;;;;;22.78;50.91;100484.69;5072516;28;20416;-64
2023/07/06 10:03:31;;;;;;;4.80;1.90;;;;;;;22.78;50.52;100473.16;5089192;28;20464;-64
2023/07/06 10:06:02;;;;;;;4.43;2.30;;;;;;;22.78;50.59;100473.16;5089095;28;20526;-64
2023/07/06 10:09:20;;;;;;;5.23;1.93;;;;;;;22.80;50.17;100481.41;5070116;28;20440;-64
2023/07/06 10:11:53;;;;;;;4.27;2.23;;;;;;;22.80;49.08;100472.78;5033282;28;20821;-64
2023/07/06 10:14:40;;;;;;;5.10;2.30;;;;;;;22.81;49.15;100478.13;5088453;28;20451;-64
2023/07/06 10:17:20;;;;;;;3.50;1.90;;;;;;;22.81;49.75;100475.25;5089473;28;21001;-64
2023/07/06 10:20:05;;;;;;;3.77;1.80;;;;;;;22.80;49.62;100476.50;5073980;28;20498;-64
2023/07/06 10:22:38;;;;;;;3.93;1.63;;;;;;;22.82;48.94;100471.13;5059731;28;20981;-64
2023/07/06 10:25:13;;;;;;;3.63;2.00;;;;;;;22.83;48.59;100475.66;5078482;28;20452;-64
2023/07/06 10:27:41;;;;;;;5.73;2.33;;;;;;;22.83;48.58;100477.72;5072867;28;20432;-64
2023/07/06 10:30:10;;;;;;;4.03;2.10;;;;;;;22.82;48.40;100479.78;5052823;28;20940;-64
2023/07/06 10:32:41;;;;;;;5.53;2.13;;;;;;;22.83;48.00;100478.53;5073063;28;20421;-64
2023/07/06 10:35:19;;;;;;;4.77;1.73;;;;;;;22.85;47.83;100466.63;5050965;28;20813;-64
2023/07/06 10:37:45;;;;;;;3.50;2.10;;;;;;;22.84;48.34;100464.97;5067542;28;21232;-64
2023/07/06 10:40:23;;;;;;;7.23;2.50;;;;;;;22.83;47.90;100474.84;5080926;28;20441;-64
2023/07/06 10:43:01;;;;;;;4.00;2.23;;;;;;;22.84;47.91;100479.38;5071137;28;20202;-64
2023/07/06 10:45:32;;;;;;;3.63;1.80;;;;;;;22.83;47.77;100477.72;5055811;28;20428;-64
2023/07/06 10:48:10;;;;;;;3.90;2.00;;;;;;;22.83;47.90;100475.66;5080827;28;20455;-64
2023/07/06 10:50:51;;;;;;;4.50;2.10;;;;;;;22.83;47.97;100469.09;5071699;28;20515;-64
2023/07/06 10:53:32;;;;;;;7.10;2.30;;;;;;;22.82;48.32;100471.13;5069466;28;20527;-64
2023/07/06 10:56:06;;;;;;;5.07;2.20;;;;;;;22.82;48.17;100473.22;5040449;28;20523;-64
2023/07/06 10:58:36;;;;;;;5.30;2.20;;;;;;;22.83;48.36;100469.91;5076613;28;20445;-64
2023/07/06 11:01:08;;;;;;;5.70;2.20;;;;;;;22.84;48.35;100477.34;5066448;28;20478;-64
2023/07/06 11:03:34;;;;;;;5.00;2.17;;;;;;;22.85;47.98;100467.47;5073326;28;20461;-64
2023/07/06 11:06:09;;;;;;;4.70;2.70;;;;;;;22.85;47.80;100466.63;5073663;28;20516;-64
2023/07/06 11:09:03;;;;;;;5.90;2.73;;;;;;;22.86;47.25;100474.03;5066413;28;20288;-64
2023/07/06 11:11:29;;;;;;;4.40;2.20;;;;;;;22.89;47.46;100471.19;5085835;28;20408;-64
2023/07/06 11:13:55;;;;;;;5.27;2.07;;;;;;;22.88;47.15;100460.06;5070636;28;20944;-64
2023/07/06 11:16:41;;;;;;;10.47;2.50;;;;;;;22.87;46.92;100467.06;5069182;28;20171;-64
2023/07/06 11:19:08;;;;;;;3.70;2.00;;;;;;;22.90;46.71;100471.97;5055421;28;20182;-64
2023/07/06 11:21:43;;;;;;;6.03;2.53;;;;;;;22.90;46.73;100469.09;5037592;28;20453;-63
2023/07/06 11:24:11;;;;;;;5.10;2.40;;;;;;;22.90;46.39;100466.22;5075995;28;21182;-65
2023/07/06 11:26:56;;;;;;;4.50;2.33;;;;;;;22.89;47.14;100471.19;5041378;28;20455;-64
2023/07/06 11:29:28;;;;;;;4.87;2.53;;;;;;;22.87;47.21;100458.41;5075133;28;20462;-64
2023/07/06 11:32:03;;;;;;;7.60;2.40;;;;;;;22.88;47.29;100463.75;5062703;28;20429;-64